createdAt,value
2022-08-27T00:01:49.008Z,3.60
2022-08-27T00:04:16.231Z,2.45
2022-08-27T00:06:43.626Z,4.68
2022-08-27T00:09:13.360Z,5.22
2022-08-27T00:11:40.182Z,8.65
2022-08-27T00:14:25.736Z,1.42
2022-08-27T00:17:11.757Z,2.53
2022-08-27T00:20:17.979Z,5.53
2022-08-27T00:22:45.031Z,2.60
2022-08-27T00:25:14.080Z,2.17
2022-08-27T00:27:41.263Z,2.55
2022-08-27T00:30:12.999Z,5.60
2022-08-27T00:32:40.627Z,1.90
2022-08-27T00:35:08.522Z,6.18
2022-08-27T00:37:35.742Z,3.53
2022-08-27T00:40:04.364Z,5.80
2022-08-27T00:42:31.336Z,2.22
2022-08-27T00:44:59.746Z,2.25
2022-08-27T00:47:29.602Z,1.55
2022-08-27T00:50:19.950Z,2.42
2022-08-27T00:52:56.376Z,2.22
2022-08-27T00:55:30.585Z,1.13
2022-08-27T00:58:10.918Z,3.47
2022-08-27T01:03:26.200Z,2.85
2022-08-27T01:05:55.022Z,4.22
2022-08-27T01:08:24.402Z,1.90
2022-08-27T01:10:52.325Z,2.22
2022-08-27T01:13:22.361Z,4.10
2022-08-27T01:16:11.425Z,3.10
2022-08-27T01:18:39.497Z,2.83
2022-08-27T01:21:26.161Z,1.85
2022-08-27T01:24:23.274Z,3.55
2022-08-27T01:26:50.312Z,2.45
2022-08-27T01:29:18.156Z,1.67
2022-08-27T01:31:45.436Z,4.00
2022-08-27T01:34:12.387Z,1.35
2022-08-27T01:36:40.244Z,1.95
2022-08-27T01:39:07.097Z,4.22
2022-08-27T01:41:34.195Z,4.20
2022-08-27T01:44:01.094Z,3.38
2022-08-27T01:46:28.745Z,1.95
2022-08-27T01:48:56.400Z,1.23
2022-08-27T01:51:23.355Z,7.22
2022-08-27T01:53:50.641Z,2.45
2022-08-27T01:56:17.647Z,4.60
2022-08-27T01:58:47.244Z,2.47
2022-08-27T02:01:18.614Z,2.25
2022-08-27T02:03:47.443Z,2.42
2022-08-27T02:06:15.287Z,2.70
2022-08-27T02:11:44.979Z,4.32
2022-08-27T02:14:12.926Z,3.90
2022-08-27T02:16:41.302Z,2.55
2022-08-27T02:19:19.704Z,3.13
2022-08-27T02:21:47.464Z,5.78
2022-08-27T02:24:14.400Z,3.53
2022-08-27T02:26:41.615Z,4.22
2022-08-27T02:29:48.980Z,3.63
2022-08-27T02:32:35.318Z,2.22
2022-08-27T02:35:04.302Z,2.78
2022-08-27T02:37:31.831Z,2.15
2022-08-27T02:39:59.204Z,2.67
2022-08-27T02:42:26.163Z,4.53
2022-08-27T02:44:55.025Z,1.70
2022-08-27T02:47:21.896Z,4.10
2022-08-27T02:49:49.417Z,4.75
2022-08-27T02:52:35.069Z,2.97
2022-08-27T02:55:02.427Z,6.13
2022-08-27T02:57:29.252Z,2.33
2022-08-27T02:59:59.170Z,5.13
2022-08-27T03:02:26.145Z,3.53
2022-08-27T03:04:54.496Z,5.15
2022-08-27T03:07:24.348Z,2.70
2022-08-27T03:09:51.925Z,3.67
2022-08-27T03:12:38.766Z,2.47
2022-08-27T03:15:08.913Z,3.92
2022-08-27T03:17:54.622Z,3.13
2022-08-27T03:20:21.888Z,4.95
2022-08-27T03:22:49.180Z,4.88
2022-08-27T03:25:35.015Z,4.07
2022-08-27T03:28:02.392Z,4.40
2022-08-27T03:30:30.713Z,4.13
2022-08-27T03:32:58.788Z,5.32
2022-08-27T03:35:25.817Z,6.35
2022-08-27T03:38:11.718Z,3.78
2022-08-27T03:40:38.816Z,5.20
2022-08-27T03:43:06.481Z,7.47
2022-08-27T03:45:56.602Z,6.35
2022-08-27T03:48:20.859Z,5.65
2022-08-27T03:50:49.280Z,5.97
2022-08-27T03:53:20.348Z,5.97
2022-08-27T03:55:48.443Z,3.92
2022-08-27T03:58:16.933Z,8.30
2022-08-27T04:00:43.883Z,4.88
2022-08-27T04:03:13.296Z,3.75
2022-08-27T04:05:41.150Z,5.78
2022-08-27T04:08:10.055Z,4.15
2022-08-27T04:10:42.251Z,4.03
2022-08-27T04:13:09.194Z,4.97
2022-08-27T04:15:40.666Z,4.43
2022-08-27T04:18:08.246Z,4.10
2022-08-27T04:20:36.159Z,4.95
2022-08-27T04:23:04.869Z,6.28
2022-08-27T04:25:32.450Z,6.20
2022-08-27T04:27:59.336Z,4.40
2022-08-27T04:30:26.319Z,9.10
2022-08-27T04:32:53.239Z,4.75
2022-08-27T04:35:20.405Z,7.10
2022-08-27T04:37:47.393Z,6.32
2022-08-27T04:40:14.348Z,5.57
2022-08-27T04:42:42.410Z,7.70
2022-08-27T04:45:09.924Z,7.45
2022-08-27T04:47:37.262Z,8.65
2022-08-27T04:50:05.649Z,8.95
2022-08-27T04:52:33.900Z,13.18
2022-08-27T04:55:08.550Z,9.68
2022-08-27T04:57:37.950Z,11.07
2022-08-27T05:00:06.854Z,11.88
2022-08-27T05:02:33.674Z,9.75
2022-08-27T05:05:00.574Z,13.25
2022-08-27T05:07:27.896Z,15.13
2022-08-27T05:09:54.732Z,11.05
2022-08-27T05:12:25.709Z,13.50
2022-08-27T05:14:54.918Z,14.10
2022-08-27T05:17:40.457Z,12.30
2022-08-27T05:20:08.239Z,11.07
2022-08-27T05:22:35.428Z,8.32
2022-08-27T05:25:02.243Z,10.85
2022-08-27T05:27:29.068Z,11.68
2022-08-27T05:30:14.638Z,8.90
2022-08-27T05:32:41.796Z,10.10
2022-08-27T05:35:11.104Z,10.55
2022-08-27T05:37:40.850Z,12.77
2022-08-27T05:40:08.384Z,9.82
2022-08-27T05:43:32.242Z,14.50
2022-08-27T05:45:59.341Z,7.75
2022-08-27T05:48:26.458Z,14.60
2022-08-27T05:50:53.443Z,14.45
2022-08-27T05:53:21.062Z,12.88
2022-08-27T05:55:47.952Z,12.00
2022-08-27T05:58:33.470Z,11.70
2022-08-27T06:01:09.422Z,12.70
2022-08-27T06:03:40.466Z,10.73
2022-08-27T06:06:11.102Z,9.70
2022-08-27T06:08:38.904Z,12.27
2022-08-27T06:11:07.765Z,10.50
2022-08-27T06:13:35.908Z,5.25
2022-08-27T06:16:07.484Z,6.15
2022-08-27T06:18:36.192Z,6.35
2022-08-27T06:21:03.096Z,6.63
2022-08-27T06:23:30.550Z,8.88
2022-08-27T06:25:58.449Z,5.85
2022-08-27T06:28:31.428Z,5.78
2022-08-27T06:31:15.002Z,7.55
2022-08-27T06:33:42.953Z,9.32
2022-08-27T06:36:12.723Z,8.02
2022-08-27T06:38:39.936Z,5.35
2022-08-27T06:41:08.079Z,5.72
2022-08-27T06:43:44.215Z,8.93
2022-08-27T06:46:14.552Z,9.88
2022-08-27T06:48:44.951Z,8.82
2022-08-27T06:51:17.254Z,8.23
2022-08-27T06:53:47.129Z,7.15
2022-08-27T06:56:15.994Z,6.85
2022-08-27T06:58:43.850Z,8.15
2022-08-27T07:01:22.336Z,8.88
2022-08-27T07:03:49.599Z,7.00
2022-08-27T07:06:18.149Z,10.10
2022-08-27T07:08:53.009Z,7.43
2022-08-27T07:11:21.276Z,6.10
2022-08-27T07:13:49.272Z,13.70
2022-08-27T07:16:19.193Z,9.52
2022-08-27T07:18:49.715Z,9.95
2022-08-27T07:21:20.308Z,12.73
2022-08-27T07:23:48.862Z,16.02
2022-08-27T07:26:16.699Z,15.27
2022-08-27T07:28:44.523Z,12.80
2022-08-27T07:31:13.341Z,9.82
2022-08-27T07:33:46.252Z,11.10
2022-08-27T07:36:41.600Z,15.30
2022-08-27T07:39:09.244Z,16.30
2022-08-27T07:41:56.529Z,14.40
2022-08-27T07:44:31.139Z,20.27
2022-08-27T07:47:02.582Z,14.18
2022-08-27T07:49:30.217Z,20.27
2022-08-27T07:51:57.109Z,17.80
2022-08-27T07:54:25.366Z,15.82
2022-08-27T07:56:55.350Z,15.52
2022-08-27T07:59:24.861Z,15.65
2022-08-27T08:02:10.785Z,12.85
2022-08-27T08:04:56.153Z,18.67
2022-08-27T08:07:24.920Z,14.57
2022-08-27T08:09:51.811Z,19.30
2022-08-27T08:12:18.662Z,16.15
2022-08-27T08:15:12.378Z,13.65
2022-08-27T08:17:39.711Z,10.98
2022-08-27T08:20:21.690Z,16.25
2022-08-27T08:22:57.386Z,10.85
2022-08-27T08:25:24.246Z,12.52
2022-08-27T08:27:51.391Z,15.50
2022-08-27T08:30:18.414Z,17.60
2022-08-27T08:32:45.419Z,14.88
2022-08-27T08:35:13.152Z,15.77
2022-08-27T08:37:42.618Z,15.02
2022-08-27T08:40:11.226Z,12.50
2022-08-27T08:42:50.602Z,14.35
2022-08-27T08:45:44.469Z,10.77
2022-08-27T08:48:18.025Z,9.35
2022-08-27T08:50:55.652Z,13.27
2022-08-27T08:53:31.653Z,12.05
2022-08-27T08:56:02.704Z,10.95
2022-08-27T08:58:52.280Z,9.65
2022-08-27T09:01:21.574Z,7.15
2022-08-27T09:03:58.021Z,6.70
2022-08-27T09:06:42.936Z,7.38
2022-08-27T09:09:22.810Z,8.52
2022-08-27T09:12:00.118Z,9.52
2022-08-27T09:14:33.013Z,7.72
2022-08-27T09:17:01.693Z,6.75
2022-08-27T09:19:29.026Z,5.80
2022-08-27T09:22:17.367Z,8.43
2022-08-27T09:25:21.189Z,6.25
2022-08-27T09:27:51.195Z,4.35
2022-08-27T09:30:30.317Z,4.57
2022-08-27T09:33:04.423Z,7.93
2022-08-27T09:35:46.155Z,8.02
2022-08-27T09:38:33.826Z,5.05
2022-08-27T09:41:07.920Z,5.13
2022-08-27T09:43:36.940Z,4.05
2022-08-27T09:46:21.690Z,4.60
2022-08-27T09:48:52.211Z,2.88
2022-08-27T09:51:27.295Z,2.13
2022-08-27T09:54:00.248Z,3.85
2022-08-27T09:56:31.657Z,2.40
2022-08-27T09:59:10.461Z,6.28
2022-08-27T10:01:54.348Z,4.35
2022-08-27T10:04:52.784Z,4.13
2022-08-27T10:07:22.900Z,2.83
2022-08-27T10:10:18.248Z,6.35
2022-08-27T10:12:48.246Z,3.17
2022-08-27T10:15:54.230Z,4.28
2022-08-27T10:18:33.931Z,1.00
2022-08-27T10:21:19.366Z,3.00
2022-08-27T10:24:13.070Z,2.75
2022-08-27T10:27:01.941Z,1.00
2022-08-27T10:29:40.605Z,7.32
2022-08-27T10:32:39.819Z,6.53
2022-08-27T10:38:47.730Z,2.47
2022-08-27T10:41:44.265Z,1.67
2022-08-27T10:44:42.528Z,3.88
2022-08-27T10:47:41.518Z,2.53
2022-08-27T10:50:42.431Z,2.53
2022-08-27T10:53:51.343Z,2.70
2022-08-27T10:56:43.623Z,3.97
2022-08-27T10:59:46.644Z,3.10
2022-08-27T11:02:39.961Z,2.78
2022-08-27T11:05:16.789Z,2.25
2022-08-27T11:08:12.571Z,2.80
2022-08-27T11:10:45.519Z,3.45
2022-08-27T11:13:20.606Z,3.10
2022-08-27T11:15:53.154Z,2.45
2022-08-27T11:18:43.286Z,1.95
2022-08-27T11:21:46.936Z,2.42
2022-08-27T11:24:39.330Z,3.13
2022-08-27T11:27:08.193Z,3.63
2022-08-27T11:29:44.810Z,3.17
2022-08-27T11:32:26.870Z,3.35
2022-08-27T11:35:02.159Z,2.58
2022-08-27T11:38:06.826Z,3.55
2022-08-27T11:41:04.601Z,2.35
2022-08-27T11:43:35.623Z,2.53
2022-08-27T11:46:07.977Z,1.55
2022-08-27T11:48:40.529Z,3.10
2022-08-27T11:51:10.137Z,2.88
2022-08-27T11:53:52.741Z,0.60
2022-08-27T11:56:43.393Z,2.03
2022-08-27T11:59:22.460Z,1.92
2022-08-27T12:01:52.679Z,1.50
2022-08-27T12:04:40.963Z,0.63
2022-08-27T12:07:30.812Z,4.10
2022-08-27T12:10:10.484Z,1.08
2022-08-27T12:13:17.496Z,2.97
2022-08-27T12:15:55.333Z,2.33
2022-08-27T12:18:53.791Z,3.42
2022-08-27T12:21:39.238Z,2.38
2022-08-27T12:24:21.057Z,1.58
2022-08-27T12:27:01.119Z,2.83
2022-08-27T12:30:00.352Z,1.58
2022-08-27T12:32:47.069Z,1.60
2022-08-27T12:35:21.329Z,3.17
2022-08-27T12:38:12.915Z,1.38
2022-08-27T12:40:49.682Z,1.80
2022-08-27T12:43:26.196Z,3.05
2022-08-27T12:46:01.646Z,2.15
2022-08-27T12:48:32.844Z,4.50
2022-08-27T12:51:33.927Z,4.55
2022-08-27T12:54:30.353Z,2.95
2022-08-27T12:57:18.390Z,1.58
2022-08-27T13:00:14.424Z,2.28
2022-08-27T13:03:07.656Z,2.92
2022-08-27T13:05:44.636Z,2.30
2022-08-27T13:08:22.714Z,2.65
2022-08-27T13:10:50.917Z,2.20
2022-08-27T13:13:21.681Z,4.93
2022-08-27T13:15:55.765Z,3.25
2022-08-27T13:18:24.001Z,3.47
2022-08-27T13:21:18.952Z,3.30
2022-08-27T13:23:54.175Z,4.80
2022-08-27T13:26:24.302Z,2.10
2022-08-27T13:28:52.678Z,2.95
2022-08-27T13:31:22.562Z,5.57
2022-08-27T13:33:50.009Z,5.35
2022-08-27T13:36:34.000Z,0.90
2022-08-27T13:39:03.034Z,0.77
2022-08-27T13:41:35.658Z,0.47
2022-08-27T13:44:35.277Z,2.47
2022-08-27T13:47:05.674Z,1.17
2022-08-27T13:49:40.057Z,3.25
2022-08-27T13:52:23.695Z,0.68
2022-08-27T13:55:19.746Z,1.98
2022-08-27T13:57:52.052Z,1.48
2022-08-27T14:00:27.253Z,2.28
2022-08-27T14:02:55.889Z,2.38
2022-08-27T14:05:23.233Z,0.98
2022-08-27T14:07:56.561Z,3.05
2022-08-27T14:10:37.456Z,1.30
2022-08-27T14:13:43.692Z,1.90
2022-08-27T14:16:31.758Z,1.02
2022-08-27T14:19:09.764Z,2.90
2022-08-27T14:21:40.210Z,2.75
2022-08-27T14:24:08.045Z,2.85
2022-08-27T14:26:35.916Z,3.20
2022-08-27T14:29:02.881Z,2.35
2022-08-27T14:31:38.783Z,5.32
2022-08-27T14:34:08.364Z,3.70
2022-08-27T14:36:38.620Z,4.38
2022-08-27T14:39:06.793Z,2.42
2022-08-27T14:41:34.174Z,2.95
2022-08-27T14:44:03.418Z,2.53
2022-08-27T14:46:36.023Z,0.98
2022-08-27T14:49:14.772Z,2.33
2022-08-27T14:51:45.945Z,2.70
2022-08-27T14:54:13.257Z,5.93
2022-08-27T14:56:41.579Z,3.63
2022-08-27T14:59:27.232Z,2.05
2022-08-27T15:02:12.632Z,1.08
2022-08-27T15:04:39.978Z,1.63
2022-08-27T15:07:09.413Z,2.17
2022-08-27T15:09:36.329Z,1.63
2022-08-27T15:12:03.537Z,4.78
2022-08-27T15:14:33.980Z,1.52
2022-08-27T15:17:01.562Z,1.67
2022-08-27T15:19:37.997Z,1.27
2022-08-27T15:22:16.889Z,2.58
2022-08-27T15:24:48.206Z,3.33
2022-08-27T15:27:15.420Z,1.63
2022-08-27T15:29:43.581Z,1.95
2022-08-27T15:32:35.089Z,3.55
2022-08-27T15:35:12.489Z,3.20
2022-08-27T15:37:41.189Z,2.17
2022-08-27T15:40:09.603Z,2.97
2022-08-27T15:42:56.980Z,1.95
2022-08-27T15:45:25.791Z,2.17
2022-08-27T15:47:56.169Z,4.35
2022-08-27T15:50:25.232Z,3.58
2022-08-27T15:52:57.901Z,1.98
2022-08-27T15:55:28.195Z,2.25
2022-08-27T15:57:55.621Z,1.35
2022-08-27T16:00:23.947Z,1.95
2022-08-27T16:02:51.203Z,3.20
2022-08-27T16:05:19.617Z,1.50
2022-08-27T16:08:05.685Z,2.75
2022-08-27T16:10:33.705Z,2.70
2022-08-27T16:13:00.642Z,2.40
2022-08-27T16:15:27.715Z,1.13
2022-08-27T16:17:59.405Z,2.25
2022-08-27T16:20:26.865Z,2.78
2022-08-27T16:22:54.391Z,1.92
2022-08-27T16:25:23.343Z,0.98
2022-08-27T16:27:51.498Z,2.40
2022-08-27T16:30:19.760Z,2.85
2022-08-27T16:32:52.424Z,4.72
2022-08-27T16:35:20.758Z,3.38
2022-08-27T16:37:47.666Z,4.15
2022-08-27T16:40:15.579Z,2.30
2022-08-27T16:42:46.716Z,1.25
2022-08-27T16:45:16.339Z,2.30
2022-08-27T16:48:01.760Z,3.55
2022-08-27T16:50:35.440Z,7.20
2022-08-27T16:53:10.037Z,1.08
2022-08-27T16:55:37.892Z,3.40
2022-08-27T16:58:09.207Z,3.90
2022-08-27T17:00:39.019Z,3.58
2022-08-27T17:03:07.738Z,2.35
2022-08-27T17:05:53.701Z,3.88
2022-08-27T17:08:26.867Z,3.03
2022-08-27T17:10:56.534Z,1.77
2022-08-27T17:13:28.287Z,4.90
2022-08-27T17:16:14.259Z,1.48
2022-08-27T17:18:41.485Z,0.57
2022-08-27T17:21:08.457Z,1.70
2022-08-27T17:23:39.025Z,0.57
2022-08-27T17:26:09.876Z,1.20
2022-08-27T17:28:41.013Z,3.08
2022-08-27T17:31:10.589Z,4.82
2022-08-27T17:33:47.529Z,4.13
2022-08-27T17:36:15.233Z,3.92
2022-08-27T17:38:42.581Z,4.18
2022-08-27T17:41:13.992Z,5.28
2022-08-27T17:43:42.017Z,4.10
2022-08-27T17:46:09.657Z,5.53
2022-08-27T17:48:36.588Z,5.50
2022-08-27T17:51:04.108Z,4.18
2022-08-27T17:53:31.269Z,4.20
2022-08-27T17:55:58.150Z,3.95
2022-08-27T17:58:25.125Z,7.43
2022-08-27T18:00:53.042Z,3.75
2022-08-27T18:03:38.514Z,4.65
2022-08-27T18:06:12.710Z,5.53
2022-08-27T18:08:39.692Z,4.20
2022-08-27T18:11:06.965Z,6.82
2022-08-27T18:13:37.279Z,7.70
2022-08-27T18:16:05.325Z,3.70
2022-08-27T18:18:32.332Z,3.38
2022-08-27T18:20:59.365Z,3.45
2022-08-27T18:23:26.246Z,7.53
2022-08-27T18:25:53.320Z,3.90
2022-08-27T18:28:22.235Z,5.00
2022-08-27T18:30:50.655Z,2.53
2022-08-27T18:33:17.907Z,4.20
2022-08-27T18:35:44.849Z,3.75
2022-08-27T18:38:12.572Z,5.15
2022-08-27T18:40:46.889Z,6.25
2022-08-27T18:43:15.767Z,5.68
2022-08-27T18:45:42.746Z,5.22
2022-08-27T18:48:17.073Z,3.75
2022-08-27T18:50:48.871Z,4.72
2022-08-27T18:53:19.884Z,2.60
2022-08-27T18:55:48.028Z,11.15
2022-08-27T18:58:15.578Z,2.42
2022-08-27T19:00:46.112Z,3.50
2022-08-27T19:03:17.873Z,3.35
2022-08-27T19:05:44.780Z,4.20
2022-08-27T19:08:13.508Z,4.70
2022-08-27T19:10:40.493Z,4.22
2022-08-27T19:13:07.422Z,4.60
2022-08-27T19:15:53.149Z,6.53
2022-08-27T19:18:21.760Z,5.57
2022-08-27T19:20:48.644Z,5.10
2022-08-27T19:23:15.577Z,4.45
2022-08-27T19:25:50.209Z,6.82
2022-08-27T19:28:24.585Z,5.45
2022-08-27T19:30:51.504Z,4.38
2022-08-27T19:33:18.475Z,2.85
2022-08-27T19:35:45.499Z,5.45
2022-08-27T19:38:13.871Z,5.60
2022-08-27T19:40:41.829Z,6.05
2022-08-27T19:43:08.942Z,3.13
2022-08-27T19:45:39.828Z,6.50
2022-08-27T19:48:08.088Z,2.92
2022-08-27T19:50:35.269Z,5.60
2022-08-27T19:53:02.247Z,2.38
2022-08-27T19:55:29.454Z,5.03
2022-08-27T19:57:56.425Z,5.80
2022-08-27T20:00:27.820Z,2.35
2022-08-27T20:02:55.685Z,8.32
2022-08-27T20:05:23.174Z,4.15
2022-08-27T20:07:52.059Z,10.30
2022-08-27T20:10:21.717Z,4.18
2022-08-27T20:12:49.406Z,4.40
2022-08-27T20:15:16.938Z,3.58
2022-08-27T20:17:45.166Z,9.15
2022-08-27T20:20:12.976Z,3.30
2022-08-27T20:22:40.970Z,6.97
2022-08-27T20:25:45.538Z,3.88
2022-08-27T20:28:37.922Z,4.38
2022-08-27T20:31:00.050Z,6.75
2022-08-27T20:33:27.160Z,8.27
2022-08-27T20:35:56.673Z,4.93
2022-08-27T20:38:23.663Z,5.63
2022-08-27T20:40:51.482Z,3.70
2022-08-27T20:43:18.876Z,4.57
2022-08-27T20:46:05.208Z,12.10
2022-08-27T20:48:32.237Z,11.35
2022-08-27T20:50:59.289Z,6.90
2022-08-27T20:53:26.924Z,9.30
2022-08-27T20:55:56.670Z,10.05
2022-08-27T20:58:43.199Z,9.75
2022-08-27T21:01:11.329Z,12.57
2022-08-27T21:03:38.423Z,6.32
2022-08-27T21:06:06.317Z,9.75
2022-08-27T21:08:33.228Z,13.15
2022-08-27T21:11:00.818Z,5.18
2022-08-27T21:13:29.199Z,5.32
2022-08-27T21:15:56.695Z,7.38
2022-08-27T21:21:09.269Z,4.82
2022-08-27T21:23:38.538Z,8.07
2022-08-27T21:26:10.047Z,6.38
2022-08-27T21:28:39.143Z,12.40
2022-08-27T21:31:06.796Z,14.82
2022-08-27T21:33:36.098Z,9.35
2022-08-27T21:36:10.129Z,10.02
2022-08-27T21:38:39.208Z,8.98
2022-08-27T21:41:06.602Z,11.57
2022-08-27T21:43:34.919Z,10.60
2022-08-27T21:46:20.580Z,9.45
2022-08-27T21:48:50.069Z,12.48
2022-08-27T21:51:26.967Z,12.70
2022-08-27T21:53:53.814Z,8.65
2022-08-27T21:56:21.490Z,20.42
2022-08-27T21:58:48.283Z,11.32
2022-08-27T22:01:15.369Z,10.70
2022-08-27T22:03:46.937Z,9.50
2022-08-27T22:06:14.965Z,6.35
2022-08-27T22:08:43.648Z,8.90
2022-08-27T22:11:11.799Z,6.45
2022-08-27T22:13:39.566Z,6.78
2022-08-27T22:16:07.191Z,4.95
2022-08-27T22:18:34.100Z,5.18
2022-08-27T22:21:01.267Z,5.07
2022-08-27T22:23:28.214Z,3.38
2022-08-27T22:26:13.935Z,6.82
2022-08-27T22:28:41.610Z,4.88
2022-08-27T22:31:08.527Z,5.68
2022-08-27T22:33:35.582Z,6.10
2022-08-27T22:36:21.414Z,6.78
2022-08-27T22:38:48.316Z,6.45
2022-08-27T22:41:18.296Z,5.03
2022-08-27T22:43:45.764Z,7.50
2022-08-27T22:46:13.026Z,5.25
2022-08-27T22:48:39.885Z,9.60
2022-08-27T22:51:07.189Z,7.05
2022-08-27T22:53:36.493Z,6.95
2022-08-27T22:56:06.324Z,12.85
2022-08-27T22:58:33.243Z,21.13
2022-08-27T23:01:00.256Z,20.15
2022-08-27T23:03:27.157Z,12.07
2022-08-27T23:05:54.967Z,8.75
2022-08-27T23:08:23.072Z,8.32
2022-08-27T23:14:35.604Z,19.65
2022-08-27T23:17:03.315Z,21.67
2022-08-27T23:19:30.989Z,11.10
2022-08-27T23:21:58.792Z,29.08
2022-08-27T23:24:25.930Z,12.77
2022-08-27T23:27:11.626Z,23.80
2022-08-27T23:29:38.666Z,22.55
2022-08-27T23:32:05.636Z,12.40
2022-08-27T23:34:33.247Z,9.45
2022-08-27T23:37:00.141Z,18.75
2022-08-27T23:39:27.013Z,15.48
2022-08-27T23:41:53.904Z,15.43
2022-08-27T23:44:20.734Z,17.02
2022-08-27T23:46:48.586Z,12.65
2022-08-27T23:49:17.477Z,12.98
2022-08-27T23:51:44.339Z,11.45
2022-08-27T23:54:30.283Z,12.45
2022-08-27T23:56:57.282Z,9.65
2022-08-27T23:59:27.583Z,12.10
